Time;durP1;ratioP1;P1;durP2;ratioP2;P2;SDS_P1;SDS_P2;PMS_P1;PMS_P2;Temp;Humidity;BMP_temperature;BMP_pressure;BME280_temperature;BME280_humidity;BME280_pressure;Samples;Min_cycle;Max_cycle;Signal;HPM_P1;HPM_P2
2021/11/19 00:00:21;;;;;;;;;27.00;23.00;;;;;11.06;66.94;102894.34;5100403;27;45239;-72
2021/11/19 00:02:46;;;;;;;;;31.50;27.50;;;;;11.05;67.20;102889.88;5100258;27;45443;-72
2021/11/19 00:05:12;;;;;;;;;29.25;26.50;;;;;11.07;66.83;102895.22;5100206;27;45341;-72
2021/11/19 00:07:37;;;;;;;;;31.25;25.50;;;;;11.04;66.29;102892.53;5099761;27;45416;-72
2021/11/19 00:10:05;;;;;;;;;31.00;27.75;;;;;11.05;66.75;102894.31;5100051;27;45408;-72
2021/11/19 00:12:30;;;;;;;;;25.50;23.50;;;;;11.00;66.68;102880.97;5100225;27;45580;-72
2021/11/19 00:14:56;;;;;;;;;30.50;26.75;;;;;10.98;66.54;102882.75;5099807;27;46402;-72
2021/11/19 00:17:21;;;;;;;;;23.75;22.00;;;;;11.05;66.81;102897.88;5100014;27;45449;-72
2021/11/19 00:19:47;;;;;;;;;28.00;21.00;;;;;11.06;66.67;102888.97;5100024;27;45388;-72
2021/11/19 00:22:15;;;;;;;;;21.00;19.75;;;;;11.00;66.52;102872.94;5100118;27;45385;-72
2021/11/19 00:24:41;;;;;;;;;22.50;21.00;;;;;11.13;66.17;102885.41;5099772;27;45372;-72
2021/11/19 00:27:10;;;;;;;;;19.75;17.75;;;;;11.13;66.60;102889.88;5098449;27;45545;-72
2021/11/19 00:29:36;;;;;;;;;28.50;24.75;;;;;11.09;66.44;102880.97;5099786;27;45329;-72
2021/11/19 00:32:03;;;;;;;;;23.25;20.75;;;;;11.14;66.63;102880.94;5099896;27;45506;-72
2021/11/19 00:34:28;;;;;;;;;29.25;22.75;;;;;11.13;66.33;102882.75;5100791;27;46193;-72
2021/11/19 00:36:56;;;;;;;;;25.50;23.25;;;;;11.13;66.50;102869.38;5105343;27;45787;-72
2021/11/19 00:39:24;;;;;;;;;28.75;23.00;;;;;11.17;66.12;102872.03;5100836;27;45368;-72
2021/11/19 00:41:50;;;;;;;;;23.50;22.00;;;;;11.19;66.48;102880.94;5103111;27;45456;-72
2021/11/19 00:44:17;;;;;;;;;23.25;21.75;;;;;11.19;66.40;102875.59;5103089;27;46315;-72
2021/11/19 00:46:45;;;;;;;;;26.00;22.75;;;;;11.22;66.20;102879.16;5093402;27;45636;-72
2021/11/19 00:49:12;;;;;;;;;22.00;20.00;;;;;11.22;66.09;102868.47;5095385;27;45357;-72
2021/11/19 00:51:41;;;;;;;;;24.25;23.25;;;;;11.27;66.02;102873.81;5103052;27;45303;-72
2021/11/19 00:54:08;;;;;;;;;29.50;22.50;;;;;11.22;66.20;102873.81;5102949;27;46052;-72
2021/11/19 00:56:43;;;;;;;;;21.75;19.75;;;;;11.28;66.43;102881.84;5103136;27;45591;-72
2021/11/19 00:59:11;;;;;;;;;24.75;19.75;;;;;11.28;66.05;102881.84;5101967;27;45551;-72
2021/11/19 01:01:41;;;;;;;;;26.50;22.00;;;;;11.28;66.09;102872.94;5102991;27;45469;-72
2021/11/19 01:04:08;;;;;;;;;23.25;21.00;;;;;11.23;65.98;102861.34;5102729;27;45265;-72
2021/11/19 01:06:34;;;;;;;;;18.75;18.75;;;;;11.27;65.92;102872.03;5101209;27;46053;-72
2021/11/19 01:09:02;;;;;;;;;26.75;24.00;;;;;11.26;66.07;102869.34;5103287;27;45380;-72
2021/11/19 01:11:28;;;;;;;;;28.00;20.25;;;;;11.20;65.52;102864.91;5102693;27;45448;-72
2021/11/19 01:13:56;;;;;;;;;25.75;20.75;;;;;11.22;66.02;102871.13;5100907;27;45237;-72
2021/11/19 01:16:29;;;;;;;;;26.75;21.50;;;;;11.24;66.32;102857.78;5102666;27;45742;-72
2021/11/19 01:19:00;;;;;;;;;19.75;19.50;;;;;11.27;66.18;102868.47;5102777;27;45247;-72
2021/11/19 01:21:38;;;;;;;;;25.25;22.50;;;;;11.27;66.02;102861.31;5102388;27;45290;-72
2021/11/19 01:24:05;;;;;;;;;22.50;20.25;;;;;11.28;65.96;102860.44;5102721;27;45184;-72
2021/11/19 01:26:34;;;;;;;;;32.00;23.25;;;;;11.30;65.98;102864.00;5102383;27;45343;-72
2021/11/19 01:29:05;;;;;;;;;23.00;20.25;;;;;11.31;65.73;102856.91;5102789;27;45271;-72
2021/11/19 01:31:35;;;;;;;;;27.75;22.25;;;;;11.33;65.65;102857.78;5102442;27;45301;-72
2021/11/19 01:34:01;;;;;;;;;24.75;20.75;;;;;11.31;65.82;102851.53;5100836;27;47132;-72
2021/11/19 01:36:27;;;;;;;;;25.75;22.50;;;;;11.34;66.02;102847.97;5102054;27;45579;-72
2021/11/19 01:38:53;;;;;;;;;24.00;20.75;;;;;11.32;65.88;102853.31;5102219;27;45442;-72
2021/11/19 01:41:23;;;;;;;;;31.75;28.25;;;;;11.36;66.09;102860.44;5102294;27;45329;-72
2021/11/19 01:43:49;;;;;;;;;27.75;22.25;;;;;11.37;65.62;102847.97;5102094;27;46174;-72
2021/11/19 01:46:20;;;;;;;;;28.00;24.75;;;;;11.39;65.93;102849.72;5100650;27;45339;-72
2021/11/19 01:48:48;;;;;;;;;21.00;19.75;;;;;11.39;65.91;102849.72;5099424;27;46218;-72
2021/11/19 01:51:35;;;;;;;;;29.50;22.50;;;;;11.40;65.92;102858.66;5099614;27;45310;-72
2021/11/19 01:54:06;;;;;;;;;18.75;17.75;;;;;11.40;65.91;102848.84;5102130;27;45442;-72
2021/11/19 01:56:34;;;;;;;;;19.50;15.75;;;;;11.42;65.63;102854.19;5100848;27;45430;-72
2021/11/19 01:59:29;;;;;;;;;25.25;20.75;;;;;11.44;65.33;102852.38;5102190;27;45350;-72
2021/11/19 02:01:58;;;;;;;;;26.00;24.00;;;;;11.43;65.67;102845.28;5101684;27;45304;-72
2021/11/19 02:04:28;;;;;;;;;23.00;19.50;;;;;11.43;65.50;102846.16;5102130;27;46203;-72
2021/11/19 02:07:18;;;;;;;;;25.75;22.25;;;;;11.42;65.53;102851.50;5100557;27;45784;-72
2021/11/19 02:10:04;;;;;;;;;20.25;19.25;;;;;11.36;65.83;102833.72;5102129;27;45167;-72
2021/11/19 02:12:35;;;;;;;;;22.25;21.50;;;;;11.43;65.70;102848.84;5089618;27;46137;-72
2021/11/19 02:15:09;;;;;;;;;25.00;21.00;;;;;11.44;65.70;102836.34;5099529;27;45470;-72
2021/11/19 02:17:36;;;;;;;;;18.00;16.00;;;;;11.45;65.53;102835.47;5101745;27;46503;-72
2021/11/19 02:20:09;;;;;;;;;26.00;22.25;;;;;11.46;65.52;102842.56;5099606;27;45244;-72
2021/11/19 02:22:56;;;;;;;;;20.75;18.25;;;;;11.46;65.76;102845.25;5094136;27;45419;-72
2021/11/19 02:25:37;;;;;;;;;21.75;20.00;;;;;11.36;65.67;102827.44;5088536;27;47176;-72
2021/11/19 02:28:10;;;;;;;;;25.75;21.75;;;;;11.40;65.47;102840.81;5101654;27;45650;-72
2021/11/19 02:30:57;;;;;;;;;21.75;19.25;;;;;11.37;65.54;102848.84;5101920;27;45300;-72
2021/11/19 02:33:26;;;;;;;;;22.50;20.00;;;;;11.39;65.69;102849.72;5101452;27;45344;-72
2021/11/19 02:36:02;;;;;;;;;22.00;19.00;;;;;11.39;65.56;102843.50;5101107;27;46399;-72
2021/11/19 02:38:32;;;;;;;;;24.75;23.25;;;;;11.39;66.08;102844.38;5101487;27;45589;-72
2021/11/19 02:40:59;;;;;;;;;22.75;19.50;;;;;11.42;65.44;102838.13;5101294;27;45426;-72
2021/11/19 02:43:36;;;;;;;;;20.50;19.25;;;;;11.41;65.25;102839.94;5101455;27;45294;-72
2021/11/19 02:46:02;;;;;;;;;20.50;19.50;;;;;11.36;65.44;102831.03;5097276;27;46113;-72
2021/11/19 02:48:31;;;;;;;;;21.00;20.75;;;;;11.35;65.62;102839.06;5090701;27;45757;-71
2021/11/19 02:50:59;;;;;;;;;21.50;21.50;;;;;11.27;65.25;102837.25;5098645;27;45228;-72
2021/11/19 02:53:25;;;;;;;;;24.75;21.25;;;;;11.31;65.54;102833.72;5101194;27;45484;-72
2021/11/19 02:55:54;;;;;;;;;21.50;19.75;;;;;11.31;65.64;102841.72;5100559;27;46094;-72
2021/11/19 02:58:23;;;;;;;;;17.75;16.25;;;;;11.32;65.49;102835.47;5100405;27;45558;-72
2021/11/19 03:01:10;;;;;;;;;19.50;16.50;;;;;11.34;65.78;102839.94;5099767;27;45331;-72
2021/11/19 03:03:39;;;;;;;;;19.00;19.00;;;;;11.35;65.75;102831.91;5099459;27;45460;-72
2021/11/19 03:06:05;;;;;;;;;24.00;19.50;;;;;11.32;65.64;102834.59;5101183;27;46188;-72
2021/11/19 03:08:33;;;;;;;;;15.75;15.75;;;;;11.37;65.51;102840.81;5100847;27;45250;-72
2021/11/19 03:10:59;;;;;;;;;19.50;18.00;;;;;11.34;65.66;102831.91;5101158;27;45387;-72
2021/11/19 03:13:28;;;;;;;;;21.25;18.50;;;;;11.32;65.88;102835.47;5098901;27;45661;-72
2021/11/19 03:15:54;;;;;;;;;21.25;20.25;;;;;11.30;65.57;102839.06;5099489;27;47332;-72
2021/11/19 03:18:22;;;;;;;;;21.25;21.00;;;;;11.29;65.57;102834.59;5100626;27;45323;-72
2021/11/19 03:20:51;;;;;;;;;18.50;16.25;;;;;11.27;65.59;102829.25;5092576;27;45396;-72
2021/11/19 03:23:17;;;;;;;;;23.25;19.50;;;;;11.26;65.76;102823.91;5099052;27;45554;-72
2021/11/19 03:25:44;;;;;;;;;20.00;15.75;;;;;11.27;66.08;102823.00;5099319;27;47129;-72
2021/11/19 03:28:11;;;;;;;;;21.25;18.25;;;;;11.30;65.66;102817.66;5100391;27;45472;-72
2021/11/19 03:30:39;;;;;;;;;20.25;19.50;;;;;11.31;65.48;102817.66;5101033;27;45351;-72
2021/11/19 03:33:07;;;;;;;;;22.00;19.00;;;;;11.26;65.63;102818.53;5100320;27;45436;-72
2021/11/19 03:35:33;;;;;;;;;21.50;19.25;;;;;11.27;65.93;102821.22;5100528;27;46201;-72
2021/11/19 03:37:59;;;;;;;;;23.50;21.25;;;;;11.32;65.81;102818.53;5100527;27;45193;-72
2021/11/19 03:40:31;;;;;;;;;21.25;18.75;;;;;11.31;65.72;102825.69;5100710;27;45225;-72
2021/11/19 03:43:00;;;;;;;;;21.00;18.25;;;;;11.28;65.70;102814.13;5087691;27;45372;-72
2021/11/19 03:45:30;;;;;;;;;20.50;18.25;;;;;11.28;65.55;102819.47;5100517;27;46133;-72
2021/11/19 03:47:56;;;;;;;;;21.50;18.75;;;;;11.26;65.62;102814.13;5098816;27;45401;-72
2021/11/19 03:50:32;;;;;;;;;20.50;18.25;;;;;11.29;65.96;102815.88;5098981;27;45584;-72
2021/11/19 03:52:57;;;;;;;;;25.50;20.25;;;;;11.28;65.82;102817.66;5087248;27;45258;-72
2021/11/19 03:55:28;;;;;;;;;25.75;20.75;;;;;11.27;65.51;102817.66;5100011;27;46386;-72
2021/11/19 03:57:55;;;;;;;;;23.75;21.25;;;;;11.26;65.72;102802.50;5100534;27;45604;-72
2021/11/19 04:00:27;;;;;;;;;18.75;18.25;;;;;11.31;65.55;102820.34;5100304;27;45306;-72
2021/11/19 04:02:54;;;;;;;;;21.00;17.00;;;;;11.31;65.84;102820.34;5100305;27;45384;-72
2021/11/19 04:05:20;;;;;;;;;14.50;14.50;;;;;11.32;65.76;102823.91;5100064;27;45371;-72
2021/11/19 04:07:45;;;;;;;;;15.50;14.75;;;;;11.32;65.39;102819.44;5100333;27;45566;-72
2021/11/19 04:10:12;;;;;;;;;14.00;13.75;;;;;11.32;65.92;102821.22;5103739;27;45487;-72
2021/11/19 04:12:38;;;;;;;;;20.75;16.75;;;;;11.32;65.67;102821.22;5103956;27;45490;-71
2021/11/19 04:15:08;;;;;;;;;22.00;15.50;;;;;11.28;65.34;102814.13;5101553;27;45230;-72
2021/11/19 04:17:33;;;;;;;;;16.75;16.00;;;;;11.33;65.38;102825.69;5101950;27;45703;-72
2021/11/19 04:19:58;;;;;;;;;17.50;13.25;;;;;11.32;65.32;102819.44;5099329;27;45733;-72
2021/11/19 04:22:24;;;;;;;;;14.50;13.25;;;;;11.31;64.84;102827.47;5103629;27;45379;-72
2021/11/19 04:24:54;;;;;;;;;17.25;15.00;;;;;11.31;64.98;102824.81;5103275;27;45424;-72
2021/11/19 04:27:21;;;;;;;;;15.25;14.00;;;;;11.21;64.91;102813.25;5103317;27;45324;-72
2021/11/19 04:29:46;;;;;;;;;16.00;16.00;;;;;11.23;65.20;102826.59;5103122;27;45352;-72
2021/11/19 04:32:13;;;;;;;;;19.75;14.00;;;;;11.16;64.86;102816.78;5103147;27;45432;-71
2021/11/19 04:34:41;;;;;;;;;18.75;16.25;;;;;11.17;65.24;102832.84;5103160;27;45310;-71
2021/11/19 04:37:07;;;;;;;;;19.25;17.25;;;;;11.10;65.28;102815.03;5097278;27;45301;-71
2021/11/19 04:39:32;;;;;;;;;15.75;15.25;;;;;11.12;65.13;102824.81;5103498;27;45190;-71
2021/11/19 04:41:58;;;;;;;;;13.75;12.50;;;;;11.10;65.40;102815.91;5103212;27;45257;-71
2021/11/19 04:44:24;;;;;;;;;16.75;13.50;;;;;11.09;64.93;102815.91;5103060;27;46089;-72
2021/11/19 04:46:49;;;;;;;;;20.00;16.50;;;;;11.09;65.03;102822.16;5091991;27;45388;-72
2021/11/19 04:49:15;;;;;;;;;14.75;14.75;;;;;11.13;65.11;102817.72;5100859;27;45511;-72
2021/11/19 04:51:43;;;;;;;;;17.00;14.00;;;;;11.12;65.24;102821.25;5102684;27;45348;-72
2021/11/19 04:54:10;;;;;;;;;13.25;11.25;;;;;11.11;64.77;102827.50;5100474;27;45420;-71
2021/11/19 04:56:37;;;;;;;;;20.25;17.75;;;;;11.10;65.06;102825.72;5101625;27;45320;-72
2021/11/19 04:59:03;;;;;;;;;12.50;12.00;;;;;11.09;65.47;102823.94;5101730;27;45347;-72
2021/11/19 05:01:32;;;;;;;;;19.75;14.75;;;;;11.05;65.64;102815.03;5102199;27;45534;-72
2021/11/19 05:03:58;;;;;;;;;13.50;12.50;;;;;11.05;65.52;102814.16;5102088;27;45441;-72
2021/11/19 05:06:23;;;;;;;;;18.75;14.75;;;;;11.10;65.41;102820.38;5102883;27;45376;-72
2021/11/19 05:08:49;;;;;;;;;20.75;17.75;;;;;11.10;65.63;102826.59;5102924;27;45440;-72
2021/11/19 05:11:23;;;;;;;;;17.00;17.00;;;;;11.08;65.20;102831.06;5102564;27;45538;-72
2021/11/19 05:13:48;;;;;;;;;16.00;13.00;;;;;11.01;65.51;102817.69;5097820;27;47269;-71
2021/11/19 05:16:15;;;;;;;;;15.75;14.25;;;;;11.04;65.31;102817.69;5095648;27;45417;-72
2021/11/19 05:18:42;;;;;;;;;17.75;17.00;;;;;11.06;65.51;102818.59;5102245;27;45468;-72
2021/11/19 05:21:09;;;;;;;;;14.50;13.75;;;;;11.01;65.63;102807.94;5102111;27;45349;-71
2021/11/19 05:23:35;;;;;;;;;14.50;14.00;;;;;11.03;65.74;102815.94;5102399;27;45336;-72
2021/11/19 05:26:00;;;;;;;;;18.25;13.75;;;;;11.04;65.37;102815.94;5102617;27;45198;-72
2021/11/19 05:28:27;;;;;;;;;16.00;12.50;;;;;11.07;65.50;102810.56;5102441;27;45469;-72
2021/11/19 05:30:54;;;;;;;;;18.75;15.25;;;;;11.08;65.45;102803.47;5102603;27;45478;-72
2021/11/19 05:33:23;;;;;;;;;19.25;17.25;;;;;11.10;65.26;102807.88;5102143;27;46377;-72
2021/11/19 05:35:50;;;;;;;;;18.00;16.50;;;;;11.08;65.48;102800.78;5102536;27;45428;-72
2021/11/19 05:38:16;;;;;;;;;13.75;13.00;;;;;11.09;65.14;102802.53;5101400;27;45519;-72
2021/11/19 05:40:42;;;;;;;;;17.25;14.50;;;;;11.11;64.92;102799.00;5102357;27;45623;-72
2021/11/19 05:43:09;;;;;;;;;19.00;17.50;;;;;11.17;65.11;102810.56;5102019;27;46204;-71
2021/11/19 05:45:35;;;;;;;;;19.25;17.00;;;;;11.20;65.27;102814.13;5102205;27;45308;-72
2021/11/19 05:48:01;;;;;;;;;14.25;11.00;;;;;11.17;65.18;102810.56;5102138;27;45247;-72
2021/11/19 05:50:30;;;;;;;;;18.75;15.75;;;;;11.18;65.30;102813.25;5101393;27;45546;-72
2021/11/19 05:53:00;;;;;;;;;17.00;17.00;;;;;11.20;65.27;102814.13;5101977;27;46967;-72
2021/11/19 05:55:28;;;;;;;;;16.25;14.75;;;;;11.21;65.14;102820.34;5101970;27;45478;-72
2021/11/19 05:57:54;;;;;;;;;18.50;15.50;;;;;11.22;65.05;102814.13;5102223;27;45303;-72
2021/11/19 06:00:23;;;;;;;;;19.00;18.25;;;;;11.24;65.42;102817.66;5101954;27;45431;-72
2021/11/19 06:02:49;;;;;;;;;14.75;13.75;;;;;11.25;65.28;102823.03;5101764;27;45355;-72
2021/11/19 06:05:14;;;;;;;;;15.75;14.75;;;;;11.22;65.43;102820.34;5101889;27;45407;-72
2021/11/19 06:07:40;;;;;;;;;19.25;18.50;;;;;11.23;64.88;102818.59;5100829;27;45218;-72
2021/11/19 06:10:08;;;;;;;;;18.25;17.00;;;;;11.18;65.33;102820.38;5101515;27;45466;-72
2021/11/19 06:12:40;;;;;;;;;21.25;16.75;;;;;11.23;65.56;102829.28;5083461;27;47528;-72
2021/11/19 06:15:11;;;;;;;;;15.25;15.25;;;;;11.23;65.38;102827.47;5101558;27;45463;-72
2021/11/19 06:17:40;;;;;;;;;14.75;14.75;;;;;11.24;65.01;102825.69;5101745;27;45628;-72
2021/11/19 06:20:18;;;;;;;;;20.75;18.75;;;;;11.24;65.27;102829.28;5101144;27;45356;-72
2021/11/19 06:22:48;;;;;;;;;18.50;15.75;;;;;11.24;65.11;102818.59;5100247;27;47635;-72
2021/11/19 06:25:20;;;;;;;;;19.00;16.75;;;;;11.19;65.43;102809.66;5101290;27;45653;-72
2021/11/19 06:27:45;;;;;;;;;18.25;16.00;;;;;11.25;65.31;102831.03;5101641;27;45503;-72
2021/11/19 06:30:14;;;;;;;;;15.00;14.25;;;;;11.24;65.33;102829.28;5100179;27;45788;-71
2021/11/19 06:32:40;;;;;;;;;17.75;15.75;;;;;11.24;65.32;102823.03;5099953;27;46290;-72
2021/11/19 06:35:06;;;;;;;;;18.25;14.00;;;;;11.23;65.29;102822.13;5101564;27;45867;-72
2021/11/19 06:37:31;;;;;;;;;20.50;19.25;;;;;11.24;65.38;102818.59;5101481;27;45314;-71
2021/11/19 06:39:57;;;;;;;;;13.25;12.00;;;;;11.29;65.17;102837.25;5101567;27;45393;-71
2021/11/19 06:42:24;;;;;;;;;17.00;15.50;;;;;11.24;65.06;102821.25;5100866;27;45286;-72
2021/11/19 06:44:49;;;;;;;;;19.00;17.75;;;;;11.29;65.32;102832.84;5101637;27;45419;-72
2021/11/19 06:47:17;;;;;;;;;15.75;14.50;;;;;11.31;64.99;102838.19;5100892;27;45569;-72
2021/11/19 06:49:43;;;;;;;;;22.00;19.75;;;;;11.32;65.06;102839.94;5100742;27;45243;-72
2021/11/19 06:52:09;;;;;;;;;17.50;16.25;;;;;11.32;65.06;102840.81;5100576;27;45326;-72
2021/11/19 06:54:35;;;;;;;;;17.25;14.25;;;;;11.30;65.05;102826.56;5101232;27;45371;-73
2021/11/19 06:57:01;;;;;;;;;17.75;17.75;;;;;11.35;65.24;102828.34;5101140;27;45376;-74
2021/11/19 06:59:26;;;;;;;;;16.75;15.50;;;;;11.37;65.31;102838.13;5100971;27;45454;-73
2021/11/19 07:01:52;;;;;;;;;15.75;14.75;;;;;11.34;64.88;102835.47;5100596;27;46286;-72
2021/11/19 07:04:18;;;;;;;;;15.25;15.00;;;;;11.38;64.50;102841.72;5101183;27;45316;-72
2021/11/19 07:06:43;;;;;;;;;16.50;14.50;;;;;11.41;65.03;102850.63;5101105;27;45433;-72
2021/11/19 07:09:12;;;;;;;;;10.25;9.00;;;;;11.39;64.79;102849.72;5100941;27;45287;-72
2021/11/19 07:11:38;;;;;;;;;15.25;12.25;;;;;11.35;64.40;102853.31;5100469;27;46204;-73
2021/11/19 07:14:04;;;;;;;;;21.00;16.75;;;;;11.35;64.85;102855.97;5100643;27;45392;-74
2021/11/19 07:16:32;;;;;;;;;19.75;18.50;;;;;11.34;64.75;102850.63;5099325;27;45410;-72
2021/11/19 07:18:58;;;;;;;;;18.50;16.75;;;;;11.39;64.54;102862.22;5100167;27;45502;-74
2021/11/19 07:21:25;;;;;;;;;17.25;15.75;;;;;11.38;64.76;102869.34;5098188;27;47050;-66
2021/11/19 07:23:52;;;;;;;;;16.25;16.25;;;;;11.39;64.83;102870.22;5100622;27;45564;-65
2021/11/19 07:26:17;;;;;;;;;15.50;15.00;;;;;11.36;64.54;102870.22;5100406;27;45380;-65
2021/11/19 07:28:44;;;;;;;;;14.25;13.50;;;;;11.34;64.34;102875.56;5100572;27;45367;-65
2021/11/19 07:31:10;;;;;;;;;13.50;13.50;;;;;11.29;64.62;102874.69;5099587;27;45823;-65
2021/11/19 07:33:37;;;;;;;;;13.00;13.00;;;;;11.32;64.65;102880.03;5100365;27;45520;-66
2021/11/19 07:36:06;;;;;;;;;13.50;13.50;;;;;11.34;64.35;102882.72;5100546;27;45179;-66
2021/11/19 07:38:32;;;;;;;;;14.50;14.25;;;;;11.36;64.56;102884.50;5100312;27;45246;-66
2021/11/19 07:40:58;;;;;;;;;18.25;17.50;;;;;11.35;64.65;102880.03;5097614;27;45581;-65
2021/11/19 07:43:27;;;;;;;;;16.25;13.50;;;;;11.37;64.36;102890.75;5099412;27;45322;-64
2021/11/19 07:45:54;;;;;;;;;19.25;15.00;;;;;11.35;64.32;102888.06;5097022;27;45374;-65
2021/11/19 07:48:29;;;;;;;;;15.50;14.00;;;;;11.38;64.27;102885.41;5089481;27;45234;-65
2021/11/19 07:50:57;;;;;;;;;14.50;14.50;;;;;11.42;64.83;102888.94;5090517;27;46064;-65
2021/11/19 07:53:23;;;;;;;;;14.75;13.25;;;;;11.41;64.37;102887.16;5100207;27;45414;-65
2021/11/19 07:55:51;;;;;;;;;17.75;15.00;;;;;11.45;64.58;102892.50;5098619;27;45511;-65
2021/11/19 07:58:17;;;;;;;;;17.75;16.25;;;;;11.42;64.45;102884.47;5095395;27;45800;-72
2021/11/19 08:00:46;;;;;;;;;17.25;14.00;;;;;11.46;64.19;102888.03;5094121;27;45494;-72
2021/11/19 08:03:13;;;;;;;;;16.25;14.50;;;;;11.49;64.48;102894.28;5097198;27;45234;-72
2021/11/19 08:05:42;;;;;;;;;19.75;16.25;;;;;11.48;64.05;102891.63;5098435;27;45329;-72
2021/11/19 08:08:07;;;;;;;;;18.50;15.00;;;;;11.47;64.24;102903.19;5091220;27;45242;-72
2021/11/19 08:10:33;;;;;;;;;17.50;14.75;;;;;11.41;64.90;102896.09;5098241;27;46111;-72
2021/11/19 08:12:59;;;;;;;;;19.00;15.25;;;;;11.46;64.44;102902.31;5099244;27;45467;-72
2021/11/19 08:15:27;;;;;;;;;19.50;19.00;;;;;11.47;64.68;102903.19;5097488;27;46713;-71
2021/11/19 08:17:55;;;;;;;;;18.25;16.50;;;;;11.49;64.62;102901.41;5098115;27;45546;-71
2021/11/19 08:20:41;;;;;;;;;24.00;19.00;;;;;11.52;64.73;102903.19;5095129;27;46092;-71
2021/11/19 08:23:19;;;;;;;;;17.75;17.00;;;;;11.51;64.33;102894.28;5095989;27;45513;-69
2021/11/19 08:25:46;;;;;;;;;18.75;17.75;;;;;11.51;64.42;102899.66;5099872;27;45251;-69
2021/11/19 08:28:12;;;;;;;;;18.00;15.00;;;;;11.53;64.51;102902.28;5099763;27;45309;-70
2021/11/19 08:30:47;;;;;;;;;20.75;18.75;;;;;11.51;64.75;102899.66;5099184;27;46345;-71
2021/11/19 08:33:14;;;;;;;;;17.50;16.25;;;;;11.58;64.75;102903.19;5099472;27;45391;-71
2021/11/19 08:35:42;;;;;;;;;19.50;18.00;;;;;11.57;64.74;102904.97;5097875;27;45344;-73
2021/11/19 08:38:14;;;;;;;;;23.00;21.00;;;;;11.56;64.48;102894.25;5099656;27;45325;-73
2021/11/19 08:40:44;;;;;;;;;17.75;17.25;;;;;11.61;64.87;102898.72;5084596;27;46000;-72
2021/11/19 08:43:13;;;;;;;;;23.00;18.75;;;;;11.61;64.57;102900.50;5097283;27;45799;-72
2021/11/19 08:45:39;;;;;;;;;24.00;22.00;;;;;11.61;64.67;102898.72;5093523;27;45404;-72
2021/11/19 08:48:05;;;;;;;;;21.00;20.00;;;;;11.64;65.00;102897.81;5095239;27;45366;-72
2021/11/19 08:50:33;;;;;;;;;19.50;19.50;;;;;11.66;64.82;102896.00;5095030;27;46178;-72
2021/11/19 08:53:00;;;;;;;;;22.25;20.75;;;;;11.67;64.75;102892.47;5098768;27;45316;-72
2021/11/19 08:55:27;;;;;;;;;22.50;20.00;;;;;11.66;64.72;102891.56;5099872;27;46455;-72
2021/11/19 08:57:53;;;;;;;;;20.00;16.75;;;;;11.67;64.80;102893.34;5102852;27;45451;-72
2021/11/19 09:00:26;;;;;;;;;23.50;19.75;;;;;11.74;64.47;102899.56;5102469;27;45416;-67
2021/11/19 09:02:53;;;;;;;;;21.75;20.50;;;;;11.71;64.54;102885.31;5102729;27;45460;-70
2021/11/19 09:05:19;;;;;;;;;21.25;19.75;;;;;11.73;64.87;102895.13;5102461;27;45415;-70
2021/11/19 09:07:44;;;;;;;;;20.00;19.25;;;;;11.71;64.40;102887.97;5102212;27;45395;-70
2021/11/19 09:10:13;;;;;;;;;23.25;21.00;;;;;11.71;64.43;102888.91;5100069;27;48352;-72
2021/11/19 09:12:40;;;;;;;;;18.00;18.00;;;;;11.73;64.55;102895.13;5099278;27;45415;-72
2021/11/19 09:15:08;;;;;;;;;20.75;18.75;;;;;11.79;64.47;102897.75;5096853;27;45310;-72
2021/11/19 09:17:52;;;;;;;;;23.00;19.25;;;;;11.81;64.42;102898.66;5101803;27;45698;-72
2021/11/19 09:20:51;;;;;;;;;17.75;15.25;;;;;11.90;64.58;102905.78;5091054;27;45403;-69
2021/11/19 09:23:26;;;;;;;;;20.25;17.00;;;;;11.90;64.46;102897.75;5099899;27;45749;-80
2021/11/19 09:25:55;;;;;;;;;19.00;19.00;;;;;11.95;64.50;102903.13;5102662;27;45281;-71
2021/11/19 09:28:25;;;;;;;;;22.00;19.00;;;;;11.93;64.29;102896.84;5101614;27;45632;-74
2021/11/19 09:30:56;;;;;;;;;22.75;16.00;;;;;11.96;64.25;102907.56;5101304;27;46555;-61
2021/11/19 09:33:24;;;;;;;;;22.00;17.50;;;;;11.96;64.42;102912.91;5101988;27;45548;-62
2021/11/19 09:35:50;;;;;;;;;21.00;20.00;;;;;11.90;64.46;102903.09;5102270;27;45329;-62
2021/11/19 09:38:17;;;;;;;;;25.50;21.25;;;;;11.94;64.57;102909.34;5101799;27;45491;-61
2021/11/19 09:40:48;;;;;;;;;21.50;18.25;;;;;11.95;64.23;102916.50;5101181;27;45372;-61
2021/11/19 09:43:47;;;;;;;;;24.75;23.00;;;;;11.97;64.39;102920.94;5098816;27;45658;-61
2021/11/19 09:46:37;;;;;;;;;20.00;18.75;;;;;12.00;64.56;102925.41;5095002;27;45467;-61
2021/11/19 09:49:17;;;;;;;;;16.75;16.75;;;;;12.03;64.75;102922.72;5093291;27;45523;-61
2021/11/19 09:52:15;;;;;;;;;17.00;15.75;;;;;12.07;64.67;102920.91;5101693;27;45489;-60
2021/11/19 09:54:55;;;;;;;;;19.00;17.00;;;;;12.09;64.32;102921.81;5100955;27;45639;-60
2021/11/19 09:57:58;;;;;;;;;17.50;16.50;;;;;12.12;64.71;102913.75;5101712;27;45275;-60
2021/11/19 10:01:00;;;;;;;;;19.25;19.00;;;;;12.15;64.63;102911.06;5101326;27;45335;-60
2021/11/19 10:03:52;;;;;;;;;15.75;15.50;;;;;12.18;64.63;102905.72;5101330;27;47351;-60
2021/11/19 10:06:25;;;;;;;;;20.50;18.25;;;;;12.20;64.50;102915.50;5101489;27;45593;-60
2021/11/19 10:08:58;;;;;;;;;16.00;16.00;;;;;12.17;64.41;102899.44;5101368;27;47162;-60
2021/11/19 10:11:35;;;;;;;;;15.00;14.75;;;;;12.22;64.52;102913.69;5095321;27;45313;-60
2021/11/19 10:14:21;;;;;;;;;20.25;19.00;;;;;12.25;64.27;102910.13;5100956;27;45542;-60
2021/11/19 10:17:21;;;;;;;;;20.50;16.75;;;;;12.27;64.31;102902.97;5099196;27;45526;-60
2021/11/19 10:19:55;;;;;;;;;19.50;19.00;;;;;12.29;64.16;102900.28;5094796;27;45501;-60
2021/11/19 10:22:32;;;;;;;;;20.25;18.00;;;;;12.31;64.15;102901.16;5095739;27;45390;-60
2021/11/19 10:25:16;;;;;;;;;21.75;18.75;;;;;12.34;63.98;102896.69;5094235;27;46428;-61
2021/11/19 10:27:55;;;;;;;;;25.50;18.75;;;;;12.35;64.33;102894.91;5100946;27;45301;-61
2021/11/19 10:30:30;;;;;;;;;25.75;17.75;;;;;12.37;64.09;102898.47;5101155;27;45445;-60
2021/11/19 10:33:02;;;;;;;;;21.50;21.00;;;;;12.39;64.26;102900.22;5099935;27;45554;-60
2021/11/19 10:35:33;;;;;;;;;24.00;21.50;;;;;12.43;64.33;102893.09;5100888;27;46381;-60
2021/11/19 10:38:07;;;;;;;;;23.00;21.25;;;;;12.45;64.32;102893.06;5097855;27;45372;-60
2021/11/19 10:41:18;;;;;;;;;25.50;23.00;;;;;12.49;64.50;102886.78;5094422;27;45475;-60
2021/11/19 10:43:52;;;;;;;;;23.75;22.00;;;;;12.49;64.24;102890.34;5099025;27;45460;-63
2021/11/19 10:46:26;;;;;;;;;26.50;25.25;;;;;12.52;64.28;102889.44;5093837;27;45303;-61
2021/11/19 10:49:21;;;;;;;;;28.25;24.50;;;;;12.55;64.33;102892.13;5090606;27;45578;-60
2021/11/19 10:51:52;;;;;;;;;27.00;23.75;;;;;12.56;64.26;102888.53;5086900;27;45571;-60
2021/11/19 10:54:42;;;;;;;;;31.00;25.75;;;;;12.58;64.34;102884.94;5100043;27;45475;-61
2021/11/19 10:57:24;;;;;;;;;25.00;24.00;;;;;12.63;63.94;102890.28;5100033;27;46008;-61
2021/11/19 11:00:29;;;;;;;;;25.00;23.00;;;;;12.64;64.12;102880.44;5099903;27;45262;-60
2021/11/19 11:03:06;;;;;;;;;26.50;23.75;;;;;12.63;63.99;102875.97;5077940;27;45326;-61
2021/11/19 11:05:38;;;;;;;;;29.00;27.50;;;;;12.64;64.12;102878.66;5100255;27;45345;-60
2021/11/19 11:08:19;;;;;;;;;29.25;26.75;;;;;12.63;64.08;102876.88;5099884;27;45281;-60
2021/11/19 11:11:04;;;;;;;;;35.00;31.00;;;;;12.65;64.00;102876.88;5087623;27;45692;-60
2021/11/19 11:13:56;;;;;;;;;23.00;20.50;;;;;12.68;63.96;102874.16;5099134;27;45423;-60
2021/11/19 11:16:23;;;;;;;;;32.25;31.25;;;;;12.67;63.94;102867.03;5099670;27;45455;-60
2021/11/19 11:19:10;;;;;;;;;27.75;26.75;;;;;12.70;64.11;102875.06;5099106;27;46678;-61
2021/11/19 11:21:55;;;;;;;;;30.75;27.75;;;;;12.74;64.25;102874.13;5099553;27;45389;-61
2021/11/19 11:24:30;;;;;;;;;30.25;26.00;;;;;12.78;64.17;102860.69;5099587;27;45521;-60